createdAt,value
2018-06-24T00:00:58.972Z,98485.20
2018-06-24T00:03:27.150Z,98483.55
2018-06-24T00:05:55.774Z,98490.34
2018-06-24T00:08:23.881Z,98471.64
2018-06-24T00:10:51.892Z,98482.14
2018-06-24T00:13:19.920Z,98474.20
2018-06-24T00:15:47.838Z,98470.22
2018-06-24T00:18:15.849Z,98477.63
2018-06-24T00:20:43.876Z,98474.33
2018-06-24T00:23:12.083Z,98471.91
2018-06-24T00:25:40.051Z,98484.81
2018-06-24T00:28:07.932Z,98483.40
2018-06-24T00:30:36.367Z,98466.77
2018-06-24T00:33:04.279Z,98478.03
2018-06-24T00:35:32.212Z,98480.54
2018-06-24T00:38:00.113Z,98474.27
2018-06-24T00:40:28.702Z,98499.20
2018-06-24T00:42:56.623Z,98486.40
2018-06-24T00:45:24.618Z,98497.90
2018-06-24T00:47:52.543Z,98485.89
2018-06-24T00:50:20.721Z,98488.47
2018-06-24T00:52:48.801Z,98492.69
2018-06-24T00:55:16.799Z,98478.88
2018-06-24T00:57:44.817Z,98476.33
2018-06-24T01:00:14.830Z,98479.27
2018-06-24T01:02:42.890Z,98473.62
2018-06-24T01:05:12.169Z,98497.63
2018-06-24T01:07:40.557Z,98481.64
2018-06-24T01:10:08.520Z,98471.55
2018-06-24T01:12:36.500Z,98469.00
2018-06-24T01:15:07.487Z,98469.47
2018-06-24T01:17:35.483Z,98471.75
2018-06-24T01:20:04.413Z,98473.03
2018-06-24T01:22:32.380Z,98473.30
2018-06-24T01:25:00.252Z,98460.52
2018-06-24T01:27:28.256Z,98473.74
2018-06-24T01:29:56.247Z,98470.98
2018-06-24T01:32:24.695Z,98481.23
2018-06-24T01:34:53.257Z,98474.63
2018-06-24T01:37:21.212Z,98475.80
2018-06-24T01:39:49.163Z,98473.69
2018-06-24T01:42:17.123Z,98470.41
2018-06-24T01:44:45.070Z,98483.16
2018-06-24T01:47:12.975Z,98474.95
2018-06-24T01:49:40.898Z,98474.33
2018-06-24T01:52:08.997Z,98478.13
2018-06-24T01:54:37.012Z,98486.17
2018-06-24T01:57:05.096Z,98475.80
2018-06-24T01:59:33.075Z,98482.45
2018-06-24T02:02:01.066Z,98480.98
2018-06-24T02:04:29.052Z,98486.63
2018-06-24T02:06:56.970Z,98491.34
2018-06-24T02:09:24.964Z,98492.78
2018-06-24T02:11:52.977Z,98494.30
2018-06-24T02:14:20.873Z,98485.31
2018-06-24T02:16:48.818Z,98494.25
2018-06-24T02:19:16.754Z,98493.08
2018-06-24T02:21:44.776Z,98494.31
2018-06-24T02:24:12.743Z,98497.02
2018-06-24T02:26:41.115Z,98493.37
2018-06-24T02:29:09.006Z,98488.77
2018-06-24T02:31:37.043Z,98490.31
2018-06-24T02:34:04.945Z,98493.48
2018-06-24T02:36:33.890Z,98489.59
2018-06-24T02:39:01.852Z,98488.70
2018-06-24T02:41:29.972Z,98490.59
2018-06-24T02:43:58.018Z,98491.37
2018-06-24T02:46:25.915Z,98494.20
2018-06-24T02:48:53.884Z,98491.87
2018-06-24T02:51:21.813Z,98487.36
2018-06-24T02:53:49.855Z,98486.55
2018-06-24T02:56:17.824Z,98491.46
2018-06-24T02:58:45.726Z,98493.97
2018-06-24T03:01:13.675Z,98493.81
2018-06-24T03:03:41.671Z,98498.81
2018-06-24T03:06:09.605Z,98492.31
2018-06-24T03:08:37.531Z,98490.36
2018-06-24T03:11:05.500Z,98513.00
2018-06-24T03:13:33.577Z,98493.97
2018-06-24T03:16:01.480Z,98493.74
2018-06-24T03:18:29.735Z,98489.65
2018-06-24T03:20:57.687Z,98500.28
2018-06-24T03:23:25.670Z,98497.89
2018-06-24T03:25:54.589Z,98493.52
2018-06-24T03:28:22.572Z,98494.67
2018-06-24T03:30:50.548Z,98489.84
2018-06-24T03:33:18.479Z,98504.50
2018-06-24T03:35:46.583Z,98502.73
2018-06-24T03:38:14.659Z,98509.16
2018-06-24T03:40:42.636Z,98499.87
2018-06-24T03:43:10.571Z,98508.16
2018-06-24T03:45:38.526Z,98498.33
2018-06-24T03:48:06.736Z,98495.92
2018-06-24T03:50:34.829Z,98502.41
2018-06-24T03:53:02.829Z,98510.08
2018-06-24T03:55:30.822Z,98501.67
2018-06-24T03:57:58.812Z,98506.58
2018-06-24T04:00:26.827Z,98505.80
2018-06-24T04:02:54.784Z,98492.41
2018-06-24T04:05:22.700Z,98493.05
2018-06-24T04:07:50.639Z,98505.98
2018-06-24T04:10:18.684Z,98497.95
2018-06-24T04:12:46.867Z,98492.09
2018-06-24T04:15:14.824Z,98494.64
2018-06-24T04:17:45.456Z,98488.77
2018-06-24T04:20:13.471Z,98500.56
2018-06-24T04:22:41.584Z,98493.66
2018-06-24T04:25:10.101Z,98489.30
2018-06-24T04:27:38.174Z,98498.03
2018-06-24T04:30:07.181Z,98500.58
2018-06-24T04:32:35.175Z,98493.70
2018-06-24T04:35:03.245Z,98495.48
2018-06-24T04:37:31.299Z,98497.53
2018-06-24T04:39:59.385Z,98494.23
2018-06-24T04:42:27.410Z,98503.97
2018-06-24T04:44:55.361Z,98500.38
2018-06-24T04:47:23.490Z,98509.09
2018-06-24T04:49:51.404Z,98509.58
2018-06-24T04:52:19.433Z,98495.52
2018-06-24T04:54:47.417Z,98500.22
2018-06-24T04:57:15.350Z,98506.48
2018-06-24T04:59:44.283Z,98507.16
2018-06-24T05:02:12.311Z,98511.88
2018-06-24T05:04:40.294Z,98519.44
2018-06-24T05:07:08.178Z,98520.34
2018-06-24T05:09:36.100Z,98527.12
2018-06-24T05:12:04.023Z,98519.44
2018-06-24T05:14:31.993Z,98536.22
2018-06-24T05:16:59.868Z,98530.20
2018-06-24T05:19:27.971Z,98532.73
2018-06-24T05:21:55.950Z,98529.25
2018-06-24T05:24:24.328Z,98533.33
2018-06-24T05:26:52.268Z,98538.65
2018-06-24T05:29:20.241Z,98544.66
2018-06-24T05:31:48.874Z,98545.67
2018-06-24T05:34:16.877Z,98543.37
2018-06-24T05:36:44.801Z,98544.87
2018-06-24T05:39:13.575Z,98544.87
2018-06-24T05:41:41.899Z,98548.22
2018-06-24T05:44:10.297Z,98547.69
2018-06-24T05:46:38.654Z,98547.30
2018-06-24T05:49:06.702Z,98537.83
2018-06-24T05:51:34.675Z,98539.28
2018-06-24T05:54:02.595Z,98538.39
2018-06-24T05:56:30.617Z,98542.09
2018-06-24T05:58:58.585Z,98540.25
2018-06-24T06:01:26.516Z,98536.73
2018-06-24T06:03:55.057Z,98538.12
2018-06-24T06:06:23.073Z,98532.09
2018-06-24T06:08:52.411Z,98538.89
2018-06-24T06:11:20.797Z,98534.17
2018-06-24T06:13:48.783Z,98535.98
2018-06-24T06:16:17.227Z,98534.06
2018-06-24T06:18:46.827Z,98534.27
2018-06-24T06:21:14.719Z,98539.68
2018-06-24T06:23:42.760Z,98532.97
2018-06-24T06:26:12.006Z,98537.44
2018-06-24T06:28:40.008Z,98531.87
2018-06-24T06:31:07.959Z,98537.70
2018-06-24T06:33:36.076Z,98536.05
2018-06-24T06:36:04.596Z,98524.73
2018-06-24T06:38:32.649Z,98531.45
2018-06-24T06:41:00.675Z,98527.52
2018-06-24T06:43:28.896Z,98532.42
2018-06-24T06:45:56.989Z,98530.34
2018-06-24T06:48:25.020Z,98522.80
2018-06-24T06:50:52.939Z,98532.89
2018-06-24T06:53:21.065Z,98536.02
2018-06-24T06:55:49.092Z,98532.55
2018-06-24T06:58:18.001Z,98525.23
2018-06-24T07:00:46.667Z,98519.84
2018-06-24T07:03:14.874Z,98522.34
2018-06-24T07:05:42.950Z,98520.80
2018-06-24T07:08:11.477Z,98524.05
2018-06-24T07:10:39.415Z,98521.65
2018-06-24T07:13:07.454Z,98528.77
2018-06-24T07:15:35.417Z,98524.25
2018-06-24T07:18:03.988Z,98523.88
2018-06-24T07:20:32.555Z,98524.33
2018-06-24T07:23:00.675Z,98528.53
2018-06-24T07:25:28.665Z,98528.30
2018-06-24T07:27:57.795Z,98529.22
2018-06-24T07:30:25.894Z,98529.45
2018-06-24T07:32:53.906Z,98529.23
2018-06-24T07:35:21.892Z,98519.80
2018-06-24T07:37:49.853Z,98519.89
2018-06-24T07:40:17.823Z,98526.30
2018-06-24T07:42:46.393Z,98523.01
2018-06-24T07:45:14.330Z,98528.25
2018-06-24T07:47:42.439Z,98534.84
2018-06-24T07:50:10.380Z,98538.13
2018-06-24T07:52:38.408Z,98529.63
2018-06-24T07:55:06.363Z,98533.66
2018-06-24T07:57:34.419Z,98536.28
2018-06-24T08:00:02.552Z,98536.58
2018-06-24T08:02:30.506Z,98536.42
2018-06-24T08:04:58.522Z,98541.16
2018-06-24T08:07:26.454Z,98541.18
2018-06-24T08:09:54.421Z,98537.66
2018-06-24T08:12:22.373Z,98541.34
2018-06-24T08:14:50.334Z,98537.36
2018-06-24T08:17:18.689Z,98539.11
2018-06-24T08:19:46.792Z,98540.28
2018-06-24T08:22:15.934Z,98537.89
2018-06-24T08:24:44.005Z,98542.12
2018-06-24T08:27:12.750Z,98535.53
2018-06-24T08:29:40.712Z,98533.83
2018-06-24T08:32:08.736Z,98537.52
2018-06-24T08:34:36.651Z,98545.63
2018-06-24T08:37:06.803Z,98542.63
2018-06-24T08:39:34.794Z,98542.09
2018-06-24T08:42:02.794Z,98546.21
2018-06-24T08:44:31.399Z,98553.08
2018-06-24T08:46:59.790Z,98550.08
2018-06-24T08:49:27.766Z,98553.48
2018-06-24T08:51:55.698Z,98552.69
2018-06-24T08:54:23.713Z,98553.44
2018-06-24T08:56:51.872Z,98550.87
2018-06-24T08:59:19.947Z,98554.43
2018-06-24T09:01:48.358Z,98549.98
2018-06-24T09:04:16.718Z,98557.39
2018-06-24T09:06:44.821Z,98559.42
2018-06-24T09:09:12.846Z,98551.59
2018-06-24T09:11:40.925Z,98554.84
2018-06-24T09:14:08.980Z,98557.44
2018-06-24T09:16:37.051Z,98550.51
2018-06-24T09:19:05.199Z,98551.36
2018-06-24T09:21:33.201Z,98555.27
2018-06-24T09:24:01.223Z,98550.88
2018-06-24T09:26:29.282Z,98550.78
2018-06-24T09:28:57.272Z,98552.17
2018-06-24T09:31:25.531Z,98548.04
2018-06-24T09:33:53.571Z,98549.75
2018-06-24T09:36:21.607Z,98543.74
2018-06-24T09:38:49.730Z,98544.73
2018-06-24T09:41:17.839Z,98543.56
2018-06-24T09:43:45.966Z,98541.30
2018-06-24T09:46:14.173Z,98539.30
2018-06-24T09:48:42.179Z,98542.55
2018-06-24T09:51:10.150Z,98540.80
2018-06-24T09:53:38.230Z,98540.27
2018-06-24T09:56:06.273Z,98540.49
2018-06-24T09:58:34.283Z,98532.23
2018-06-24T10:01:02.288Z,98526.17
2018-06-24T10:03:30.244Z,98532.80
2018-06-24T10:05:58.247Z,98523.16
2018-06-24T10:08:26.200Z,98522.84
2018-06-24T10:10:54.188Z,98515.31
2018-06-24T10:13:22.219Z,98518.30
2018-06-24T10:15:50.166Z,98517.41
2018-06-24T10:18:18.134Z,98521.23
2018-06-24T10:20:46.120Z,98517.09
2018-06-24T10:23:14.093Z,98517.75
2018-06-24T10:25:42.054Z,98517.67
2018-06-24T10:28:10.053Z,98526.89
2018-06-24T10:30:37.991Z,98523.96
2018-06-24T10:33:06.031Z,98517.82
2018-06-24T10:35:34.014Z,98511.91
2018-06-24T10:38:02.058Z,98504.69
2018-06-24T10:40:30.743Z,98506.60
2018-06-24T10:42:58.762Z,98503.80
2018-06-24T10:45:27.012Z,98502.73
2018-06-24T10:47:54.958Z,98498.63
2018-06-24T10:50:22.883Z,98500.72
2018-06-24T10:52:51.650Z,98498.82
2018-06-24T10:55:20.604Z,98502.98
2018-06-24T10:57:48.691Z,98497.70
2018-06-24T11:00:16.660Z,98492.74
2018-06-24T11:02:44.646Z,98495.05
2018-06-24T11:05:12.672Z,98493.17
2018-06-24T11:07:41.706Z,98484.22
2018-06-24T11:10:09.753Z,98487.54
2018-06-24T11:12:37.742Z,98483.97
2018-06-24T11:15:05.744Z,98487.61
2018-06-24T11:17:33.776Z,98485.64
2018-06-24T11:20:02.013Z,98483.52
2018-06-24T11:22:30.042Z,98477.42
2018-06-24T11:24:58.004Z,98475.93
2018-06-24T11:27:26.059Z,98474.78
2018-06-24T11:29:54.178Z,98473.62
2018-06-24T11:32:22.145Z,98468.50
2018-06-24T11:34:50.233Z,98472.58
2018-06-24T11:37:18.284Z,98467.91
2018-06-24T11:39:46.306Z,98464.89
2018-06-24T11:42:14.685Z,98464.55
2018-06-24T11:44:42.638Z,98468.41
2018-06-24T11:47:10.716Z,98466.93
2018-06-24T11:49:38.646Z,98457.78
2018-06-24T11:52:06.710Z,98460.11
2018-06-24T11:54:34.711Z,98451.92
2018-06-24T11:57:02.919Z,98452.60
2018-06-24T11:59:30.960Z,98450.55
2018-06-24T12:01:58.913Z,98452.89
2018-06-24T12:04:27.057Z,98456.47
2018-06-24T12:06:55.086Z,98453.89
2018-06-24T12:09:23.070Z,98452.50
2018-06-24T12:11:51.154Z,98450.36
2018-06-24T12:14:19.159Z,98449.72
2018-06-24T12:16:47.352Z,98451.64
2018-06-24T12:19:15.445Z,98457.97
2018-06-24T12:21:43.472Z,98463.62
2018-06-24T12:24:11.583Z,98462.18
2018-06-24T12:26:39.667Z,98461.84
2018-06-24T12:29:07.612Z,98457.23
2018-06-24T12:31:36.460Z,98454.51
2018-06-24T12:34:04.668Z,98460.41
2018-06-24T12:36:37.570Z,98455.47
2018-06-24T12:39:11.821Z,98456.25
2018-06-24T12:41:40.002Z,98457.12
2018-06-24T12:44:08.660Z,98453.75
2018-06-24T12:46:36.669Z,98448.16
2018-06-24T12:49:05.537Z,98450.84
2018-06-24T12:51:33.746Z,98449.93
2018-06-24T12:54:01.836Z,98449.13
2018-06-24T12:56:30.149Z,98445.47
2018-06-24T12:58:58.215Z,98443.12
2018-06-24T13:01:26.122Z,98447.97
2018-06-24T13:03:54.827Z,98450.98
2018-06-24T13:06:23.200Z,98452.28
2018-06-24T13:08:51.378Z,98443.88
2018-06-24T13:11:19.566Z,98444.52
2018-06-24T13:13:47.813Z,98441.22
2018-06-24T13:16:15.879Z,98443.23
2018-06-24T13:18:44.111Z,98438.76
2018-06-24T13:21:12.171Z,98441.13
2018-06-24T13:23:40.311Z,98436.66
2018-06-24T13:26:08.350Z,98442.45
2018-06-24T13:28:36.711Z,98439.36
2018-06-24T13:31:04.780Z,98444.44
2018-06-24T13:33:32.782Z,98443.05
2018-06-24T13:36:00.727Z,98443.62
2018-06-24T13:38:28.798Z,98444.05
2018-06-24T13:40:56.790Z,98441.77
2018-06-24T13:43:24.821Z,98445.19
2018-06-24T13:45:52.753Z,98445.89
2018-06-24T13:48:20.728Z,98446.17
2018-06-24T13:50:48.766Z,98442.78
2018-06-24T13:53:16.627Z,98441.96
2018-06-24T13:55:46.547Z,98440.37
2018-06-24T13:58:14.640Z,98434.60
2018-06-24T14:00:42.623Z,98433.63
2018-06-24T14:03:10.598Z,98428.21
2018-06-24T14:05:38.558Z,98423.44
2018-06-24T14:08:06.655Z,98427.20
2018-06-24T14:10:34.659Z,98428.11
2018-06-24T14:13:02.872Z,98416.91
2018-06-24T14:15:30.924Z,98423.01
2018-06-24T14:17:58.834Z,98426.30
2018-06-24T14:20:26.985Z,98436.14
2018-06-24T14:22:54.927Z,98429.41
2018-06-24T14:25:23.406Z,98429.92
2018-06-24T14:27:51.495Z,98430.49
2018-06-24T14:30:19.444Z,98434.39
2018-06-24T14:32:47.555Z,98429.05
2018-06-24T14:35:15.544Z,98429.62
2018-06-24T14:37:43.828Z,98427.97
2018-06-24T14:40:11.880Z,98419.41
2018-06-24T14:42:39.955Z,98423.36
2018-06-24T14:45:14.455Z,98417.02
2018-06-24T14:47:42.470Z,98424.78
2018-06-24T14:50:10.446Z,98426.12
2018-06-24T14:52:38.510Z,98419.07
2018-06-24T14:55:07.961Z,98421.84
2018-06-24T14:57:35.959Z,98420.75
2018-06-24T15:00:04.444Z,98413.77
2018-06-24T15:02:34.665Z,98416.08
2018-06-24T15:05:03.259Z,98417.13
2018-06-24T15:07:31.238Z,98411.40
2018-06-24T15:09:59.360Z,98419.47
2018-06-24T15:12:27.342Z,98426.41
2018-06-24T15:14:55.382Z,98422.13
2018-06-24T15:17:23.414Z,98417.95
2018-06-24T15:19:51.366Z,98421.24
2018-06-24T15:22:19.431Z,98421.17
2018-06-24T15:24:48.445Z,98420.13
2018-06-24T15:27:16.369Z,98421.09
2018-06-24T15:29:44.354Z,98414.21
2018-06-24T15:32:12.315Z,98415.66
2018-06-24T15:34:40.226Z,98410.50
2018-06-24T15:37:08.216Z,98416.39
2018-06-24T15:39:36.260Z,98410.13
2018-06-24T15:42:04.341Z,98412.65
2018-06-24T15:44:32.293Z,98418.92
2018-06-24T15:47:00.234Z,98415.22
2018-06-24T15:49:28.622Z,98412.36
2018-06-24T15:51:56.642Z,98410.70
2018-06-24T15:54:24.636Z,98414.71
2018-06-24T15:56:52.626Z,98411.81
2018-06-24T15:59:20.617Z,98417.98
2018-06-24T16:01:48.597Z,98422.13
2018-06-24T16:04:16.538Z,98423.78
2018-06-24T16:06:44.498Z,98415.48
2018-06-24T16:09:13.055Z,98419.41
2018-06-24T16:11:42.060Z,98414.63
2018-06-24T16:14:10.029Z,98419.11
2018-06-24T16:16:39.780Z,98424.35
2018-06-24T16:19:08.954Z,98428.25
2018-06-24T16:21:37.004Z,98433.33
2018-06-24T16:24:08.291Z,98430.70
2018-06-24T16:26:36.561Z,98438.23
2018-06-24T16:29:04.598Z,98434.62
2018-06-24T16:31:32.602Z,98432.00
2018-06-24T16:34:00.638Z,98442.83
2018-06-24T16:36:29.287Z,98441.36
2018-06-24T16:38:57.585Z,98451.88
2018-06-24T16:41:25.635Z,98455.60
2018-06-24T16:43:53.551Z,98453.91
2018-06-24T16:46:21.488Z,98459.80
2018-06-24T16:48:49.484Z,98464.33
2018-06-24T16:51:17.514Z,98458.27
2018-06-24T16:53:45.643Z,98461.30
2018-06-24T16:56:13.635Z,98466.57
2018-06-24T16:58:42.203Z,98465.16
2018-06-24T17:01:10.311Z,98473.98
2018-06-24T17:03:38.236Z,98476.64
2018-06-24T17:06:06.204Z,98483.68
2018-06-24T17:08:34.208Z,98482.39
2018-06-24T17:11:02.144Z,98487.14
2018-06-24T17:13:30.134Z,98481.16
2018-06-24T17:15:58.288Z,98477.88
2018-06-24T17:18:26.908Z,98480.70
2018-06-24T17:20:54.905Z,98481.20
2018-06-24T17:23:22.975Z,98486.91
2018-06-24T17:25:51.012Z,98484.13
2018-06-24T17:28:19.058Z,98478.80
2018-06-24T17:30:47.130Z,98484.44
2018-06-24T17:33:15.621Z,98486.53
2018-06-24T17:35:43.730Z,98499.27
2018-06-24T17:38:12.053Z,98501.45
2018-06-24T17:40:40.081Z,98502.38
2018-06-24T17:43:08.331Z,98500.74
2018-06-24T17:45:39.967Z,98503.88
2018-06-24T17:48:08.054Z,98514.47
2018-06-24T17:50:36.315Z,98513.13
2018-06-24T17:53:04.709Z,98519.23
2018-06-24T17:55:32.709Z,98526.66
2018-06-24T17:58:00.808Z,98528.20
2018-06-24T18:00:28.806Z,98528.27
2018-06-24T18:02:56.714Z,98531.00
2018-06-24T18:05:24.701Z,98535.70
2018-06-24T18:07:52.627Z,98534.88
2018-06-24T18:10:20.672Z,98540.19
2018-06-24T18:12:48.792Z,98535.48
2018-06-24T18:15:17.006Z,98542.95
2018-06-24T18:17:45.259Z,98543.19
2018-06-24T18:20:13.302Z,98545.52
2018-06-24T18:22:41.256Z,98541.05
2018-06-24T18:25:09.505Z,98545.45
2018-06-24T18:27:37.491Z,98550.73
2018-06-24T18:30:06.117Z,98554.44
2018-06-24T18:32:34.134Z,98557.12
2018-06-24T18:35:02.168Z,98564.08
2018-06-24T18:37:30.124Z,98576.36
2018-06-24T18:39:58.088Z,98576.94
2018-06-24T18:42:26.309Z,98579.34
2018-06-24T18:44:54.321Z,98587.19
2018-06-24T18:47:22.448Z,98580.53
2018-06-24T18:49:51.344Z,98578.45
2018-06-24T18:52:19.900Z,98573.34
2018-06-24T18:54:47.862Z,98575.32
2018-06-24T18:57:16.029Z,98586.23
2018-06-24T18:59:44.060Z,98592.33
2018-06-24T19:02:12.471Z,98597.38
2018-06-24T19:04:40.525Z,98593.78
2018-06-24T19:07:08.951Z,98601.54
2018-06-24T19:09:37.200Z,98607.95
2018-06-24T19:12:05.215Z,98610.50
2018-06-24T19:14:33.168Z,98608.68
2018-06-24T19:17:01.275Z,98615.67
2018-06-24T19:19:29.352Z,98609.02
2018-06-24T19:21:57.515Z,98621.09
2018-06-24T19:24:25.638Z,98619.41
2018-06-24T19:26:53.848Z,98620.29
2018-06-24T19:29:21.924Z,98623.70
2018-06-24T19:31:49.920Z,98628.83
2018-06-24T19:34:18.011Z,98629.07
2018-06-24T19:36:46.417Z,98623.92
2018-06-24T19:39:14.506Z,98626.38
2018-06-24T19:41:43.402Z,98624.50
2018-06-24T19:44:11.465Z,98629.13
2018-06-24T19:46:39.441Z,98626.66
2018-06-24T19:49:07.424Z,98630.27
2018-06-24T19:51:35.758Z,98629.53
2018-06-24T19:54:03.752Z,98629.05
2018-06-24T19:56:31.751Z,98627.76
2018-06-24T19:58:59.789Z,98622.48
2018-06-24T20:01:27.824Z,98615.41
2018-06-24T20:03:55.822Z,98618.13
2018-06-24T20:06:23.842Z,98613.41
2018-06-24T20:08:51.893Z,98611.48
2018-06-24T20:11:19.934Z,98611.55
2018-06-24T20:13:47.953Z,98608.50
2018-06-24T20:16:15.982Z,98610.96
2018-06-24T20:18:44.059Z,98604.41
2018-06-24T20:21:12.155Z,98611.86
2018-06-24T20:23:40.653Z,98608.95
2018-06-24T20:26:08.879Z,98608.70
2018-06-24T20:28:37.010Z,98621.56
2018-06-24T20:31:05.496Z,98624.02
2018-06-24T20:33:33.546Z,98625.30
2018-06-24T20:36:01.821Z,98628.36
2018-06-24T20:38:29.968Z,98628.26
2018-06-24T20:40:57.898Z,98627.33
2018-06-24T20:43:25.959Z,98624.77
2018-06-24T20:45:53.929Z,98622.63
2018-06-24T20:48:22.074Z,98625.31
2018-06-24T20:50:50.083Z,98613.28
2018-06-24T20:53:18.856Z,98615.31
2018-06-24T20:55:47.107Z,98625.08
2018-06-24T20:58:15.618Z,98623.92
2018-06-24T21:00:43.774Z,98625.59
2018-06-24T21:03:11.804Z,98620.83
2018-06-24T21:05:39.707Z,98626.31
2018-06-24T21:08:07.800Z,98620.66
2018-06-24T21:10:35.865Z,98616.25
2018-06-24T21:13:03.838Z,98619.41
2018-06-24T21:15:31.841Z,98621.80
2018-06-24T21:17:59.779Z,98623.59
2018-06-24T21:20:27.811Z,98624.03
2018-06-24T21:22:55.762Z,98621.47
2018-06-24T21:25:23.769Z,98622.17
2018-06-24T21:27:51.818Z,98616.36
2018-06-24T21:30:19.758Z,98615.42
2018-06-24T21:32:47.731Z,98614.64
2018-06-24T21:35:15.717Z,98618.85
2018-06-24T21:37:43.658Z,98626.36
2018-06-24T21:40:11.642Z,98629.13
2018-06-24T21:42:40.104Z,98630.36
2018-06-24T21:45:08.058Z,98625.81
2018-06-24T21:47:35.996Z,98630.36
2018-06-24T21:50:03.979Z,98626.09
2018-06-24T21:52:31.935Z,98624.35
2018-06-24T21:54:59.902Z,98623.25
2018-06-24T21:57:27.845Z,98616.80
2018-06-24T21:59:55.761Z,98617.69
2018-06-24T22:02:23.725Z,98622.95
2018-06-24T22:04:51.756Z,98621.58
2018-06-24T22:07:20.065Z,98619.41
2018-06-24T22:09:48.024Z,98618.56
2018-06-24T22:12:16.065Z,98617.39
2018-06-24T22:14:43.985Z,98617.37
2018-06-24T22:17:11.967Z,98613.81
2018-06-24T22:19:39.929Z,98613.53
2018-06-24T22:22:07.889Z,98610.44
2018-06-24T22:24:35.832Z,98609.42
2018-06-24T22:27:03.880Z,98609.31
2018-06-24T22:29:31.890Z,98606.80
2018-06-24T22:31:59.935Z,98604.45
2018-06-24T22:34:27.895Z,98604.98
2018-06-24T22:36:55.852Z,98603.00
2018-06-24T22:39:23.919Z,98604.63
2018-06-24T22:41:51.858Z,98603.97
2018-06-24T22:44:19.799Z,98607.50
2018-06-24T22:46:47.862Z,98616.43
2018-06-24T22:49:15.912Z,98613.24
2018-06-24T22:51:43.960Z,98607.72
2018-06-24T22:54:11.907Z,98609.32
2018-06-24T22:56:39.984Z,98613.27
2018-06-24T22:59:19.181Z,98616.88
2018-06-24T23:01:47.179Z,98615.80
2018-06-24T23:04:15.330Z,98612.48
2018-06-24T23:06:43.287Z,98614.93
2018-06-24T23:09:11.262Z,98610.24
2018-06-24T23:11:39.201Z,98606.55
2018-06-24T23:14:07.102Z,98608.87
2018-06-24T23:16:35.546Z,98603.00
2018-06-24T23:19:03.723Z,98606.53
2018-06-24T23:21:31.678Z,98600.55
2018-06-24T23:24:00.132Z,98604.38
2018-06-24T23:26:28.126Z,98592.14
2018-06-24T23:28:56.110Z,98595.61
2018-06-24T23:31:23.974Z,98592.14
2018-06-24T23:33:51.942Z,98590.03
2018-06-24T23:36:19.989Z,98593.89
2018-06-24T23:38:48.040Z,98590.73
2018-06-24T23:41:15.954Z,98588.02
2018-06-24T23:43:43.950Z,98591.24
2018-06-24T23:46:11.859Z,98591.81
2018-06-24T23:48:39.930Z,98590.13
2018-06-24T23:51:07.888Z,98587.70
2018-06-24T23:53:35.821Z,98588.72
2018-06-24T23:56:03.844Z,98588.33
2018-06-24T23:58:31.790Z,98577.39
